sensor_id;sensor_type;location;lat;lon;timestamp;P1;durP1;ratioP1;P2;durP2;ratioP2
21820;SDS011;11073;48.586;12.066;2022-11-20T00:01:39;20.57;;;14.03;;
21820;SDS011;11073;48.586;12.066;2022-11-20T00:04:09;23.60;;;14.90;;
21820;SDS011;11073;48.586;12.066;2022-11-20T00:06:39;25.17;;;16.17;;
21820;SDS011;11073;48.586;12.066;2022-11-20T00:09:09;26.93;;;15.30;;
21820;SDS011;11073;48.586;12.066;2022-11-20T00:11:38;31.33;;;18.67;;
21820;SDS011;11073;48.586;12.066;2022-11-20T00:14:08;25.70;;;16.90;;
21820;SDS011;11073;48.586;12.066;2022-11-20T00:16:39;31.97;;;17.70;;
21820;SDS011;11073;48.586;12.066;2022-11-20T00:19:07;31.13;;;16.83;;
21820;SDS011;11073;48.586;12.066;2022-11-20T00:21:36;28.33;;;16.83;;
21820;SDS011;11073;48.586;12.066;2022-11-20T00:24:05;27.80;;;15.70;;
21820;SDS011;11073;48.586;12.066;2022-11-20T00:26:36;29.60;;;16.03;;
21820;SDS011;11073;48.586;12.066;2022-11-20T00:29:04;26.57;;;15.70;;
21820;SDS011;11073;48.586;12.066;2022-11-20T00:31:35;18.87;;;13.77;;
21820;SDS011;11073;48.586;12.066;2022-11-20T00:34:04;22.23;;;13.97;;
21820;SDS011;11073;48.586;12.066;2022-11-20T00:36:33;22.40;;;14.90;;
21820;SDS011;11073;48.586;12.066;2022-11-20T00:39:02;23.77;;;16.03;;
21820;SDS011;11073;48.586;12.066;2022-11-20T00:41:31;26.87;;;16.90;;
21820;SDS011;11073;48.586;12.066;2022-11-20T00:44:00;22.73;;;15.07;;
21820;SDS011;11073;48.586;12.066;2022-11-20T00:46:29;21.00;;;14.13;;
21820;SDS011;11073;48.586;12.066;2022-11-20T00:48:59;21.93;;;14.97;;
21820;SDS011;11073;48.586;12.066;2022-11-20T00:51:28;21.97;;;14.33;;
21820;SDS011;11073;48.586;12.066;2022-11-20T00:53:57;22.57;;;14.60;;
21820;SDS011;11073;48.586;12.066;2022-11-20T00:56:27;21.73;;;14.27;;
21820;SDS011;11073;48.586;12.066;2022-11-20T00:58:58;21.77;;;14.30;;
21820;SDS011;11073;48.586;12.066;2022-11-20T01:01:28;20.60;;;13.63;;
21820;SDS011;11073;48.586;12.066;2022-11-20T01:03:59;21.40;;;13.93;;
21820;SDS011;11073;48.586;12.066;2022-11-20T01:06:28;20.90;;;13.37;;
21820;SDS011;11073;48.586;12.066;2022-11-20T01:08:59;23.47;;;14.20;;
21820;SDS011;11073;48.586;12.066;2022-11-20T01:11:30;23.67;;;13.83;;
21820;SDS011;11073;48.586;12.066;2022-11-20T01:14:01;24.23;;;14.90;;
21820;SDS011;11073;48.586;12.066;2022-11-20T01:16:32;17.37;;;12.73;;
21820;SDS011;11073;48.586;12.066;2022-11-20T01:19:04;20.67;;;14.37;;
21820;SDS011;11073;48.586;12.066;2022-11-20T01:21:34;16.40;;;12.07;;
21820;SDS011;11073;48.586;12.066;2022-11-20T01:24:05;19.63;;;12.10;;
21820;SDS011;11073;48.586;12.066;2022-11-20T01:26:36;20.60;;;12.33;;
21820;SDS011;11073;48.586;12.066;2022-11-20T01:29:06;18.40;;;12.67;;
21820;SDS011;11073;48.586;12.066;2022-11-20T01:31:37;16.60;;;11.87;;
21820;SDS011;11073;48.586;12.066;2022-11-20T01:34:08;17.37;;;11.80;;
21820;SDS011;11073;48.586;12.066;2022-11-20T01:36:39;16.23;;;11.83;;
21820;SDS011;11073;48.586;12.066;2022-11-20T01:39:10;17.73;;;12.33;;
21820;SDS011;11073;48.586;12.066;2022-11-20T01:41:40;19.07;;;12.90;;
21820;SDS011;11073;48.586;12.066;2022-11-20T01:44:48;18.73;;;12.73;;
21820;SDS011;11073;48.586;12.066;2022-11-20T01:47:20;21.73;;;12.63;;
21820;SDS011;11073;48.586;12.066;2022-11-20T01:49:56;16.83;;;12.13;;
21820;SDS011;11073;48.586;12.066;2022-11-20T01:52:30;17.00;;;11.07;;
21820;SDS011;11073;48.586;12.066;2022-11-20T01:55:05;19.90;;;12.83;;
21820;SDS011;11073;48.586;12.066;2022-11-20T01:57:37;18.97;;;12.53;;
21820;SDS011;11073;48.586;12.066;2022-11-20T02:00:09;17.57;;;12.77;;
21820;SDS011;11073;48.586;12.066;2022-11-20T02:02:41;21.40;;;13.60;;
21820;SDS011;11073;48.586;12.066;2022-11-20T02:05:16;18.27;;;12.17;;
21820;SDS011;11073;48.586;12.066;2022-11-20T02:07:50;18.17;;;12.47;;
21820;SDS011;11073;48.586;12.066;2022-11-20T02:10:22;18.80;;;12.63;;
21820;SDS011;11073;48.586;12.066;2022-11-20T02:12:51;20.40;;;12.30;;
21820;SDS011;11073;48.586;12.066;2022-11-20T02:15:38;16.73;;;12.93;;
21820;SDS011;11073;48.586;12.066;2022-11-20T02:18:08;16.70;;;12.33;;
21820;SDS011;11073;48.586;12.066;2022-11-20T02:20:39;15.53;;;11.43;;
21820;SDS011;11073;48.586;12.066;2022-11-20T02:23:11;15.63;;;11.33;;
21820;SDS011;11073;48.586;12.066;2022-11-20T02:25:42;16.93;;;11.57;;
21820;SDS011;11073;48.586;12.066;2022-11-20T02:28:14;16.20;;;11.20;;
21820;SDS011;11073;48.586;12.066;2022-11-20T02:30:45;17.20;;;11.57;;
21820;SDS011;11073;48.586;12.066;2022-11-20T02:33:13;16.03;;;12.00;;
21820;SDS011;11073;48.586;12.066;2022-11-20T02:35:43;17.33;;;11.60;;
21820;SDS011;11073;48.586;12.066;2022-11-20T02:38:13;17.17;;;12.53;;
21820;SDS011;11073;48.586;12.066;2022-11-20T02:40:45;16.70;;;11.77;;
21820;SDS011;11073;48.586;12.066;2022-11-20T02:43:21;17.63;;;11.37;;
21820;SDS011;11073;48.586;12.066;2022-11-20T02:45:50;17.23;;;12.43;;
21820;SDS011;11073;48.586;12.066;2022-11-20T02:48:19;18.50;;;12.23;;
21820;SDS011;11073;48.586;12.066;2022-11-20T02:50:51;15.37;;;11.13;;
21820;SDS011;11073;48.586;12.066;2022-11-20T02:53:20;16.80;;;11.63;;
21820;SDS011;11073;48.586;12.066;2022-11-20T02:55:50;17.50;;;11.53;;
21820;SDS011;11073;48.586;12.066;2022-11-20T02:58:19;15.43;;;11.53;;
21820;SDS011;11073;48.586;12.066;2022-11-20T03:00:48;16.90;;;12.17;;
21820;SDS011;11073;48.586;12.066;2022-11-20T03:03:17;17.40;;;12.47;;
21820;SDS011;11073;48.586;12.066;2022-11-20T03:05:46;15.90;;;11.93;;
21820;SDS011;11073;48.586;12.066;2022-11-20T03:08:15;17.07;;;12.43;;
21820;SDS011;11073;48.586;12.066;2022-11-20T03:10:44;17.50;;;12.97;;
21820;SDS011;11073;48.586;12.066;2022-11-20T03:13:13;18.03;;;12.97;;
21820;SDS011;11073;48.586;12.066;2022-11-20T03:15:42;20.20;;;12.53;;
21820;SDS011;11073;48.586;12.066;2022-11-20T03:18:11;16.10;;;11.83;;
21820;SDS011;11073;48.586;12.066;2022-11-20T03:20:40;13.47;;;10.67;;
21820;SDS011;11073;48.586;12.066;2022-11-20T03:23:09;18.23;;;12.27;;
21820;SDS011;11073;48.586;12.066;2022-11-20T03:25:38;18.30;;;12.50;;
21820;SDS011;11073;48.586;12.066;2022-11-20T03:28:06;15.83;;;11.60;;
21820;SDS011;11073;48.586;12.066;2022-11-20T03:30:36;15.13;;;11.47;;
21820;SDS011;11073;48.586;12.066;2022-11-20T03:33:05;15.10;;;11.97;;
21820;SDS011;11073;48.586;12.066;2022-11-20T03:35:34;15.73;;;11.70;;
21820;SDS011;11073;48.586;12.066;2022-11-20T03:38:02;16.20;;;12.03;;
21820;SDS011;11073;48.586;12.066;2022-11-20T03:40:31;15.40;;;12.10;;
21820;SDS011;11073;48.586;12.066;2022-11-20T03:43:02;14.90;;;11.47;;
21820;SDS011;11073;48.586;12.066;2022-11-20T03:45:31;15.87;;;11.53;;
21820;SDS011;11073;48.586;12.066;2022-11-20T03:48:01;18.43;;;12.70;;
21820;SDS011;11073;48.586;12.066;2022-11-20T03:50:30;16.13;;;12.20;;
21820;SDS011;11073;48.586;12.066;2022-11-20T03:52:59;16.30;;;12.80;;
21820;SDS011;11073;48.586;12.066;2022-11-20T03:55:28;18.83;;;13.20;;
21820;SDS011;11073;48.586;12.066;2022-11-20T03:57:56;15.27;;;11.17;;
21820;SDS011;11073;48.586;12.066;2022-11-20T04:00:25;17.83;;;13.27;;
21820;SDS011;11073;48.586;12.066;2022-11-20T04:02:57;16.90;;;13.07;;
21820;SDS011;11073;48.586;12.066;2022-11-20T04:05:27;16.17;;;12.00;;
21820;SDS011;11073;48.586;12.066;2022-11-20T04:07:57;20.50;;;13.70;;
21820;SDS011;11073;48.586;12.066;2022-11-20T04:10:25;18.27;;;13.13;;
21820;SDS011;11073;48.586;12.066;2022-11-20T04:12:54;17.70;;;13.03;;
21820;SDS011;11073;48.586;12.066;2022-11-20T04:15:23;19.03;;;13.77;;
21820;SDS011;11073;48.586;12.066;2022-11-20T04:17:53;16.10;;;12.23;;
21820;SDS011;11073;48.586;12.066;2022-11-20T04:20:21;15.27;;;10.87;;
21820;SDS011;11073;48.586;12.066;2022-11-20T04:22:54;15.10;;;11.13;;
21820;SDS011;11073;48.586;12.066;2022-11-20T04:25:22;16.70;;;11.40;;
21820;SDS011;11073;48.586;12.066;2022-11-20T04:27:51;15.67;;;10.17;;
21820;SDS011;11073;48.586;12.066;2022-11-20T04:30:20;12.57;;;9.07;;
21820;SDS011;11073;48.586;12.066;2022-11-20T04:32:49;12.60;;;8.07;;
21820;SDS011;11073;48.586;12.066;2022-11-20T04:35:17;11.77;;;8.00;;
21820;SDS011;11073;48.586;12.066;2022-11-20T04:37:46;10.37;;;7.63;;
21820;SDS011;11073;48.586;12.066;2022-11-20T04:40:16;9.93;;;8.03;;
21820;SDS011;11073;48.586;12.066;2022-11-20T04:42:45;9.63;;;7.00;;
21820;SDS011;11073;48.586;12.066;2022-11-20T04:45:13;8.50;;;6.97;;
21820;SDS011;11073;48.586;12.066;2022-11-20T04:47:42;9.83;;;6.97;;
21820;SDS011;11073;48.586;12.066;2022-11-20T04:50:11;12.17;;;7.07;;
21820;SDS011;11073;48.586;12.066;2022-11-20T04:52:40;10.87;;;6.77;;
21820;SDS011;11073;48.586;12.066;2022-11-20T04:55:09;10.03;;;6.27;;
21820;SDS011;11073;48.586;12.066;2022-11-20T04:57:39;10.43;;;6.47;;
21820;SDS011;11073;48.586;12.066;2022-11-20T05:00:08;8.37;;;6.17;;
21820;SDS011;11073;48.586;12.066;2022-11-20T05:02:38;7.27;;;5.90;;
21820;SDS011;11073;48.586;12.066;2022-11-20T05:05:07;7.13;;;5.47;;
21820;SDS011;11073;48.586;12.066;2022-11-20T05:07:36;7.90;;;5.67;;
21820;SDS011;11073;48.586;12.066;2022-11-20T05:10:05;6.87;;;5.67;;
21820;SDS011;11073;48.586;12.066;2022-11-20T05:12:35;7.13;;;6.07;;
21820;SDS011;11073;48.586;12.066;2022-11-20T05:15:05;10.27;;;6.27;;
21820;SDS011;11073;48.586;12.066;2022-11-20T05:17:34;9.33;;;5.73;;
21820;SDS011;11073;48.586;12.066;2022-11-20T05:20:03;8.90;;;6.40;;
21820;SDS011;11073;48.586;12.066;2022-11-20T05:22:32;8.97;;;6.30;;
21820;SDS011;11073;48.586;12.066;2022-11-20T05:25:00;8.50;;;6.70;;
21820;SDS011;11073;48.586;12.066;2022-11-20T05:27:29;6.70;;;5.57;;
21820;SDS011;11073;48.586;12.066;2022-11-20T05:29:58;6.97;;;5.20;;
21820;SDS011;11073;48.586;12.066;2022-11-20T05:32:28;8.27;;;5.60;;
21820;SDS011;11073;48.586;12.066;2022-11-20T05:34:56;9.07;;;5.80;;
21820;SDS011;11073;48.586;12.066;2022-11-20T05:37:25;8.30;;;5.57;;
21820;SDS011;11073;48.586;12.066;2022-11-20T05:39:54;6.87;;;5.80;;
21820;SDS011;11073;48.586;12.066;2022-11-20T05:42:23;7.27;;;5.27;;
21820;SDS011;11073;48.586;12.066;2022-11-20T05:45:01;9.20;;;5.87;;
21820;SDS011;11073;48.586;12.066;2022-11-20T05:47:33;9.07;;;6.77;;
21820;SDS011;11073;48.586;12.066;2022-11-20T05:50:02;10.93;;;8.40;;
21820;SDS011;11073;48.586;12.066;2022-11-20T05:52:31;9.17;;;6.53;;
21820;SDS011;11073;48.586;12.066;2022-11-20T05:55:00;9.73;;;6.10;;
21820;SDS011;11073;48.586;12.066;2022-11-20T05:57:29;8.80;;;5.30;;
21820;SDS011;11073;48.586;12.066;2022-11-20T05:59:59;7.33;;;5.10;;
21820;SDS011;11073;48.586;12.066;2022-11-20T06:02:30;6.43;;;4.70;;
21820;SDS011;11073;48.586;12.066;2022-11-20T06:05:00;6.73;;;4.60;;
21820;SDS011;11073;48.586;12.066;2022-11-20T06:07:28;7.27;;;4.60;;
21820;SDS011;11073;48.586;12.066;2022-11-20T06:09:56;6.90;;;5.03;;
21820;SDS011;11073;48.586;12.066;2022-11-20T06:12:25;9.67;;;4.87;;
21820;SDS011;11073;48.586;12.066;2022-11-20T06:14:54;7.00;;;4.93;;
21820;SDS011;11073;48.586;12.066;2022-11-20T06:17:23;8.20;;;4.17;;
21820;SDS011;11073;48.586;12.066;2022-11-20T06:19:52;5.23;;;4.37;;
21820;SDS011;11073;48.586;12.066;2022-11-20T06:22:22;6.97;;;4.87;;
21820;SDS011;11073;48.586;12.066;2022-11-20T06:24:50;5.10;;;4.20;;
21820;SDS011;11073;48.586;12.066;2022-11-20T06:27:19;5.47;;;4.70;;
21820;SDS011;11073;48.586;12.066;2022-11-20T06:29:48;6.57;;;4.20;;
21820;SDS011;11073;48.586;12.066;2022-11-20T06:32:17;5.47;;;4.63;;
21820;SDS011;11073;48.586;12.066;2022-11-20T06:34:46;5.50;;;4.27;;
21820;SDS011;11073;48.586;12.066;2022-11-20T06:37:15;6.13;;;4.37;;
21820;SDS011;11073;48.586;12.066;2022-11-20T06:39:44;5.93;;;4.27;;
21820;SDS011;11073;48.586;12.066;2022-11-20T06:42:13;7.83;;;4.17;;
21820;SDS011;11073;48.586;12.066;2022-11-20T06:44:42;5.10;;;4.17;;
21820;SDS011;11073;48.586;12.066;2022-11-20T06:47:10;11.37;;;8.03;;
21820;SDS011;11073;48.586;12.066;2022-11-20T06:49:39;12.77;;;8.33;;
21820;SDS011;11073;48.586;12.066;2022-11-20T06:52:08;9.73;;;6.57;;
21820;SDS011;11073;48.586;12.066;2022-11-20T06:54:37;6.03;;;4.67;;
21820;SDS011;11073;48.586;12.066;2022-11-20T06:57:07;9.50;;;4.60;;
21820;SDS011;11073;48.586;12.066;2022-11-20T06:59:36;7.40;;;4.83;;
21820;SDS011;11073;48.586;12.066;2022-11-20T07:02:04;9.07;;;4.23;;
21820;SDS011;11073;48.586;12.066;2022-11-20T07:04:33;5.77;;;4.30;;
21820;SDS011;11073;48.586;12.066;2022-11-20T07:07:02;5.33;;;4.40;;
21820;SDS011;11073;48.586;12.066;2022-11-20T07:09:31;6.17;;;4.60;;
21820;SDS011;11073;48.586;12.066;2022-11-20T07:12:00;5.40;;;4.07;;
21820;SDS011;11073;48.586;12.066;2022-11-20T07:14:30;7.77;;;4.63;;
21820;SDS011;11073;48.586;12.066;2022-11-20T07:16:59;5.10;;;4.10;;
21820;SDS011;11073;48.586;12.066;2022-11-20T07:19:28;6.43;;;4.03;;
21820;SDS011;11073;48.586;12.066;2022-11-20T07:21:57;5.63;;;4.13;;
21820;SDS011;11073;48.586;12.066;2022-11-20T07:24:25;5.03;;;4.00;;
21820;SDS011;11073;48.586;12.066;2022-11-20T07:26:54;5.43;;;4.07;;
21820;SDS011;11073;48.586;12.066;2022-11-20T07:29:23;4.70;;;3.80;;
21820;SDS011;11073;48.586;12.066;2022-11-20T07:31:53;5.53;;;3.90;;
21820;SDS011;11073;48.586;12.066;2022-11-20T07:34:22;4.50;;;3.63;;
21820;SDS011;11073;48.586;12.066;2022-11-20T07:36:51;5.47;;;3.67;;
21820;SDS011;11073;48.586;12.066;2022-11-20T07:39:19;4.60;;;3.80;;
21820;SDS011;11073;48.586;12.066;2022-11-20T07:41:48;5.17;;;3.90;;
21820;SDS011;11073;48.586;12.066;2022-11-20T07:44:17;12.60;;;11.30;;
21820;SDS011;11073;48.586;12.066;2022-11-20T07:46:46;7.70;;;4.93;;
21820;SDS011;11073;48.586;12.066;2022-11-20T07:49:16;5.93;;;4.93;;
21820;SDS011;11073;48.586;12.066;2022-11-20T07:51:45;4.93;;;4.07;;
21820;SDS011;11073;48.586;12.066;2022-11-20T07:54:18;4.60;;;3.40;;
21820;SDS011;11073;48.586;12.066;2022-11-20T07:56:47;3.87;;;3.43;;
21820;SDS011;11073;48.586;12.066;2022-11-20T07:59:16;5.00;;;3.90;;
21820;SDS011;11073;48.586;12.066;2022-11-20T08:01:45;5.67;;;3.60;;
21820;SDS011;11073;48.586;12.066;2022-11-20T08:04:14;4.83;;;3.40;;
21820;SDS011;11073;48.586;12.066;2022-11-20T08:06:45;3.83;;;3.43;;
21820;SDS011;11073;48.586;12.066;2022-11-20T08:09:14;3.77;;;3.27;;
21820;SDS011;11073;48.586;12.066;2022-11-20T08:11:43;4.20;;;2.83;;
21820;SDS011;11073;48.586;12.066;2022-11-20T08:14:29;5.63;;;3.47;;
21820;SDS011;11073;48.586;12.066;2022-11-20T08:16:57;3.87;;;3.43;;
21820;SDS011;11073;48.586;12.066;2022-11-20T08:19:26;5.17;;;3.30;;
21820;SDS011;11073;48.586;12.066;2022-11-20T08:21:56;4.17;;;2.97;;
21820;SDS011;11073;48.586;12.066;2022-11-20T08:24:26;4.23;;;3.57;;
21820;SDS011;11073;48.586;12.066;2022-11-20T08:26:56;3.87;;;3.20;;
21820;SDS011;11073;48.586;12.066;2022-11-20T08:29:26;4.70;;;3.17;;
21820;SDS011;11073;48.586;12.066;2022-11-20T08:31:55;5.20;;;3.40;;
21820;SDS011;11073;48.586;12.066;2022-11-20T08:34:24;4.83;;;3.10;;
21820;SDS011;11073;48.586;12.066;2022-11-20T08:36:53;3.93;;;2.90;;
21820;SDS011;11073;48.586;12.066;2022-11-20T08:39:23;3.13;;;2.80;;
21820;SDS011;11073;48.586;12.066;2022-11-20T08:41:51;3.93;;;3.10;;
21820;SDS011;11073;48.586;12.066;2022-11-20T08:44:20;3.30;;;3.00;;
21820;SDS011;11073;48.586;12.066;2022-11-20T08:46:49;4.93;;;2.97;;
21820;SDS011;11073;48.586;12.066;2022-11-20T08:49:17;3.93;;;3.27;;
21820;SDS011;11073;48.586;12.066;2022-11-20T08:51:46;4.60;;;2.87;;
21820;SDS011;11073;48.586;12.066;2022-11-20T08:54:19;5.00;;;2.97;;
21820;SDS011;11073;48.586;12.066;2022-11-20T08:56:50;3.97;;;3.30;;
21820;SDS011;11073;48.586;12.066;2022-11-20T08:59:19;5.87;;;3.53;;
21820;SDS011;11073;48.586;12.066;2022-11-20T09:02:08;5.03;;;3.57;;
21820;SDS011;11073;48.586;12.066;2022-11-20T09:04:37;5.10;;;4.47;;
21820;SDS011;11073;48.586;12.066;2022-11-20T09:07:05;4.10;;;3.53;;
21820;SDS011;11073;48.586;12.066;2022-11-20T09:09:34;3.90;;;3.10;;
21820;SDS011;11073;48.586;12.066;2022-11-20T09:12:04;2.70;;;2.50;;
21820;SDS011;11073;48.586;12.066;2022-11-20T09:14:33;4.40;;;2.90;;
21820;SDS011;11073;48.586;12.066;2022-11-20T09:17:02;7.13;;;3.27;;
21820;SDS011;11073;48.586;12.066;2022-11-20T09:19:31;4.63;;;3.60;;
21820;SDS011;11073;48.586;12.066;2022-11-20T09:22:19;4.27;;;3.47;;
21820;SDS011;11073;48.586;12.066;2022-11-20T09:24:48;5.03;;;3.63;;
21820;SDS011;11073;48.586;12.066;2022-11-20T09:27:18;4.30;;;2.97;;
21820;SDS011;11073;48.586;12.066;2022-11-20T09:29:48;3.40;;;3.10;;
21820;SDS011;11073;48.586;12.066;2022-11-20T09:32:17;6.03;;;3.20;;
21820;SDS011;11073;48.586;12.066;2022-11-20T09:34:46;3.77;;;3.10;;
21820;SDS011;11073;48.586;12.066;2022-11-20T09:37:15;5.17;;;3.10;;
21820;SDS011;11073;48.586;12.066;2022-11-20T09:39:43;5.23;;;3.43;;
21820;SDS011;11073;48.586;12.066;2022-11-20T09:45:16;4.70;;;3.20;;
21820;SDS011;11073;48.586;12.066;2022-11-20T09:47:58;4.03;;;3.10;;
21820;SDS011;11073;48.586;12.066;2022-11-20T09:50:40;5.70;;;3.63;;
21820;SDS011;11073;48.586;12.066;2022-11-20T09:53:17;7.77;;;3.50;;
21820;SDS011;11073;48.586;12.066;2022-11-20T09:55:50;7.97;;;4.60;;
21820;SDS011;11073;48.586;12.066;2022-11-20T09:58:24;4.37;;;3.47;;
21820;SDS011;11073;48.586;12.066;2022-11-20T10:00:58;5.23;;;3.90;;
21820;SDS011;11073;48.586;12.066;2022-11-20T10:03:35;4.07;;;3.67;;
21820;SDS011;11073;48.586;12.066;2022-11-20T10:06:10;5.57;;;3.40;;
21820;SDS011;11073;48.586;12.066;2022-11-20T10:08:45;5.43;;;3.70;;
21820;SDS011;11073;48.586;12.066;2022-11-20T10:11:23;3.93;;;3.20;;
21820;SDS011;11073;48.586;12.066;2022-11-20T10:14:03;5.63;;;3.40;;
21820;SDS011;11073;48.586;12.066;2022-11-20T10:16:42;4.17;;;3.00;;
21820;SDS011;11073;48.586;12.066;2022-11-20T10:19:29;3.97;;;2.87;;
21820;SDS011;11073;48.586;12.066;2022-11-20T10:22:14;3.70;;;2.93;;
21820;SDS011;11073;48.586;12.066;2022-11-20T10:24:55;4.17;;;2.67;;
21820;SDS011;11073;48.586;12.066;2022-11-20T10:27:32;4.17;;;3.10;;
21820;SDS011;11073;48.586;12.066;2022-11-20T10:30:21;4.70;;;3.63;;
21820;SDS011;11073;48.586;12.066;2022-11-20T10:32:53;5.63;;;3.77;;
21820;SDS011;11073;48.586;12.066;2022-11-20T10:35:28;4.97;;;3.40;;
21820;SDS011;11073;48.586;12.066;2022-11-20T10:38:05;7.33;;;4.50;;
21820;SDS011;11073;48.586;12.066;2022-11-20T10:40:41;4.20;;;2.60;;
21820;SDS011;11073;48.586;12.066;2022-11-20T10:43:13;3.90;;;2.90;;
21820;SDS011;11073;48.586;12.066;2022-11-20T10:45:50;4.53;;;3.33;;
21820;SDS011;11073;48.586;12.066;2022-11-20T10:48:25;4.10;;;2.90;;
21820;SDS011;11073;48.586;12.066;2022-11-20T10:51:01;5.87;;;2.87;;
21820;SDS011;11073;48.586;12.066;2022-11-20T10:53:47;3.80;;;2.73;;
21820;SDS011;11073;48.586;12.066;2022-11-20T10:56:28;3.00;;;2.70;;
21820;SDS011;11073;48.586;12.066;2022-11-20T10:59:04;4.27;;;3.10;;
21820;SDS011;11073;48.586;12.066;2022-11-20T11:01:49;4.97;;;3.33;;
21820;SDS011;11073;48.586;12.066;2022-11-20T11:04:22;3.60;;;2.53;;
21820;SDS011;11073;48.586;12.066;2022-11-20T11:06:58;9.40;;;5.50;;
21820;SDS011;11073;48.586;12.066;2022-11-20T11:09:35;4.50;;;2.83;;
21820;SDS011;11073;48.586;12.066;2022-11-20T11:12:09;7.90;;;4.50;;
21820;SDS011;11073;48.586;12.066;2022-11-20T11:14:43;15.40;;;6.93;;
21820;SDS011;11073;48.586;12.066;2022-11-20T11:17:27;4.80;;;2.43;;
21820;SDS011;11073;48.586;12.066;2022-11-20T11:20:04;5.37;;;3.43;;
21820;SDS011;11073;48.586;12.066;2022-11-20T11:22:42;5.70;;;3.27;;
21820;SDS011;11073;48.586;12.066;2022-11-20T11:25:23;5.77;;;3.00;;
21820;SDS011;11073;48.586;12.066;2022-11-20T11:27:55;4.03;;;2.83;;
21820;SDS011;11073;48.586;12.066;2022-11-20T11:30:25;4.93;;;3.00;;
21820;SDS011;11073;48.586;12.066;2022-11-20T11:33:06;4.67;;;3.47;;
21820;SDS011;11073;48.586;12.066;2022-11-20T11:35:39;3.97;;;2.63;;
21820;SDS011;11073;48.586;12.066;2022-11-20T11:38:19;3.60;;;2.83;;
21820;SDS011;11073;48.586;12.066;2022-11-20T11:40:52;3.87;;;2.70;;
21820;SDS011;11073;48.586;12.066;2022-11-20T11:43:24;3.73;;;2.40;;
21820;SDS011;11073;48.586;12.066;2022-11-20T11:46:20;3.17;;;2.63;;
21820;SDS011;11073;48.586;12.066;2022-11-20T11:48:58;3.70;;;2.27;;
21820;SDS011;11073;48.586;12.066;2022-11-20T11:51:31;10.10;;;4.47;;
21820;SDS011;11073;48.586;12.066;2022-11-20T11:54:05;3.83;;;2.50;;
21820;SDS011;11073;48.586;12.066;2022-11-20T11:56:42;4.00;;;2.60;;
21820;SDS011;11073;48.586;12.066;2022-11-20T11:59:14;3.33;;;2.67;;
21820;SDS011;11073;48.586;12.066;2022-11-20T12:01:52;4.33;;;2.23;;
21820;SDS011;11073;48.586;12.066;2022-11-20T12:04:32;2.33;;;2.13;;
21820;SDS011;11073;48.586;12.066;2022-11-20T12:07:11;3.17;;;2.03;;
21820;SDS011;11073;48.586;12.066;2022-11-20T12:10:04;4.60;;;1.90;;
21820;SDS011;11073;48.586;12.066;2022-11-20T12:12:41;2.77;;;1.73;;
21820;SDS011;11073;48.586;12.066;2022-11-20T12:15:16;3.37;;;1.80;;
21820;SDS011;11073;48.586;12.066;2022-11-20T12:17:53;3.17;;;1.43;;
21820;SDS011;11073;48.586;12.066;2022-11-20T12:20:24;2.50;;;1.93;;
21820;SDS011;11073;48.586;12.066;2022-11-20T12:22:59;2.90;;;1.80;;
21820;SDS011;11073;48.586;12.066;2022-11-20T12:25:36;2.50;;;2.30;;
21820;SDS011;11073;48.586;12.066;2022-11-20T12:28:13;5.43;;;2.87;;
21820;SDS011;11073;48.586;12.066;2022-11-20T12:30:58;1.90;;;1.40;;
21820;SDS011;11073;48.586;12.066;2022-11-20T12:33:45;29.53;;;16.70;;
21820;SDS011;11073;48.586;12.066;2022-11-20T12:36:27;4.47;;;2.63;;
21820;SDS011;11073;48.586;12.066;2022-11-20T12:39:11;5.03;;;3.33;;
21820;SDS011;11073;48.586;12.066;2022-11-20T12:42:03;8.57;;;5.10;;
21820;SDS011;11073;48.586;12.066;2022-11-20T12:45:04;5.00;;;3.20;;
21820;SDS011;11073;48.586;12.066;2022-11-20T12:47:48;4.37;;;2.77;;
21820;SDS011;11073;48.586;12.066;2022-11-20T12:50:27;4.70;;;2.23;;
21820;SDS011;11073;48.586;12.066;2022-11-20T12:53:27;2.10;;;1.60;;
21820;SDS011;11073;48.586;12.066;2022-11-20T12:56:04;4.10;;;1.70;;
21820;SDS011;11073;48.586;12.066;2022-11-20T12:58:42;3.70;;;2.40;;
21820;SDS011;11073;48.586;12.066;2022-11-20T13:01:18;2.40;;;1.80;;
21820;SDS011;11073;48.586;12.066;2022-11-20T13:04:12;2.27;;;1.60;;
21820;SDS011;11073;48.586;12.066;2022-11-20T13:06:48;2.93;;;1.93;;
21820;SDS011;11073;48.586;12.066;2022-11-20T13:09:19;6.07;;;1.33;;
21820;SDS011;11073;48.586;12.066;2022-11-20T13:11:53;2.70;;;1.90;;
21820;SDS011;11073;48.586;12.066;2022-11-20T13:14:32;2.13;;;1.53;;
21820;SDS011;11073;48.586;12.066;2022-11-20T13:17:05;1.93;;;1.37;;
21820;SDS011;11073;48.586;12.066;2022-11-20T13:19:40;3.23;;;1.70;;
21820;SDS011;11073;48.586;12.066;2022-11-20T13:22:09;5.17;;;2.60;;
21820;SDS011;11073;48.586;12.066;2022-11-20T13:24:39;1.80;;;1.10;;
21820;SDS011;11073;48.586;12.066;2022-11-20T13:27:19;3.87;;;1.53;;
21820;SDS011;11073;48.586;12.066;2022-11-20T13:29:59;2.53;;;1.60;;
21820;SDS011;11073;48.586;12.066;2022-11-20T13:32:31;3.37;;;1.93;;
21820;SDS011;11073;48.586;12.066;2022-11-20T13:35:00;2.43;;;1.93;;
21820;SDS011;11073;48.586;12.066;2022-11-20T13:37:32;3.87;;;2.40;;
21820;SDS011;11073;48.586;12.066;2022-11-20T13:40:11;4.40;;;2.73;;
21820;SDS011;11073;48.586;12.066;2022-11-20T13:42:43;3.17;;;2.43;;
21820;SDS011;11073;48.586;12.066;2022-11-20T13:45:22;2.30;;;1.60;;
21820;SDS011;11073;48.586;12.066;2022-11-20T13:50:52;3.40;;;1.50;;
21820;SDS011;11073;48.586;12.066;2022-11-20T13:53:33;2.00;;;1.47;;
21820;SDS011;11073;48.586;12.066;2022-11-20T13:56:23;4.03;;;2.10;;
21820;SDS011;11073;48.586;12.066;2022-11-20T13:58:59;13.13;;;6.27;;
21820;SDS011;11073;48.586;12.066;2022-11-20T14:01:41;9.77;;;6.50;;
21820;SDS011;11073;48.586;12.066;2022-11-20T14:04:15;3.47;;;2.77;;
21820;SDS011;11073;48.586;12.066;2022-11-20T14:06:49;2.50;;;1.87;;
21820;SDS011;11073;48.586;12.066;2022-11-20T14:09:25;2.60;;;1.43;;
21820;SDS011;11073;48.586;12.066;2022-11-20T14:11:57;4.13;;;1.83;;
21820;SDS011;11073;48.586;12.066;2022-11-20T14:14:26;2.83;;;1.40;;
21820;SDS011;11073;48.586;12.066;2022-11-20T14:17:04;2.40;;;1.60;;
21820;SDS011;11073;48.586;12.066;2022-11-20T14:19:34;4.37;;;2.53;;
21820;SDS011;11073;48.586;12.066;2022-11-20T14:22:09;4.50;;;2.60;;
21820;SDS011;11073;48.586;12.066;2022-11-20T14:24:44;7.27;;;3.60;;
21820;SDS011;11073;48.586;12.066;2022-11-20T14:27:15;6.63;;;3.97;;
21820;SDS011;11073;48.586;12.066;2022-11-20T14:29:47;19.43;;;10.13;;
21820;SDS011;11073;48.586;12.066;2022-11-20T14:32:19;9.50;;;5.27;;
21820;SDS011;11073;48.586;12.066;2022-11-20T14:34:50;18.27;;;10.03;;
21820;SDS011;11073;48.586;12.066;2022-11-20T14:37:20;10.43;;;5.97;;
21820;SDS011;11073;48.586;12.066;2022-11-20T14:39:52;13.70;;;7.67;;
21820;SDS011;11073;48.586;12.066;2022-11-20T14:42:24;7.57;;;5.13;;
21820;SDS011;11073;48.586;12.066;2022-11-20T14:44:55;7.93;;;5.00;;
21820;SDS011;11073;48.586;12.066;2022-11-20T14:47:26;7.50;;;4.30;;
21820;SDS011;11073;48.586;12.066;2022-11-20T14:49:57;8.37;;;5.10;;
21820;SDS011;11073;48.586;12.066;2022-11-20T14:52:36;12.80;;;7.00;;
21820;SDS011;11073;48.586;12.066;2022-11-20T14:55:05;20.77;;;10.63;;
21820;SDS011;11073;48.586;12.066;2022-11-20T14:57:38;21.10;;;11.57;;
21820;SDS011;11073;48.586;12.066;2022-11-20T15:00:17;14.70;;;8.00;;
21820;SDS011;11073;48.586;12.066;2022-11-20T15:02:48;12.10;;;6.50;;